Time;durP1;ratioP1;P1;durP2;ratioP2;P2;SDS_P1;SDS_P2;PMS_P1;PMS_P2;Temp;Humidity;BMP_temperature;BMP_pressure;BME280_temperature;BME280_humidity;BME280_pressure;Samples;Min_cycle;Max_cycle;Signal;HPM_P1;HPM_P2
2021/10/21 00:01:50;;;;;;;3.05;1.50;;;;;;;;;;10387168;28;20061;-68
2021/10/21 00:06:54;;;;;;;4.40;1.73;;;;;;;;;;10392095;28;20065;-69
2021/10/21 00:11:58;;;;;;;1.98;1.17;;;;;;;;;;10393731;28;20045;-69
2021/10/21 00:17:02;;;;;;;2.65;1.60;;;;;;;;;;10395759;28;20056;-68
2021/10/21 00:22:06;;;;;;;2.00;0.85;;;;;;;;;;10390088;28;20052;-68
2021/10/21 00:27:09;;;;;;;2.08;1.33;;;;;;;;;;10380156;28;20115;-69
2021/10/21 00:32:12;;;;;;;1.27;0.93;;;;;;;;;;10389403;28;20133;-68
2021/10/21 00:37:16;;;;;;;3.00;1.38;;;;;;;;;;10389173;28;20099;-68
2021/10/21 00:42:28;;;;;;;2.03;1.25;;;;;;;;;;10386913;28;20037;-68
2021/10/21 00:47:31;;;;;;;3.78;1.70;;;;;;;;;;10395300;28;20052;-68
2021/10/21 00:52:35;;;;;;;1.52;1.23;;;;;;;;;;10389767;28;20524;-69
2021/10/21 00:57:38;;;;;;;3.25;1.58;;;;;;;;;;10386289;28;20061;-66
2021/10/21 01:02:41;;;;;;;2.38;1.30;;;;;;;;;;10388802;28;20049;-68
2021/10/21 01:07:45;;;;;;;3.03;1.67;;;;;;;;;;10383960;28;20072;-70
2021/10/21 01:12:48;;;;;;;4.93;1.40;;;;;;;;;;10390360;28;20056;-70
2021/10/21 01:18:11;;;;;;;2.80;1.60;;;;;;;;;;10389183;28;20147;-69
2021/10/21 01:23:15;;;;;;;4.13;1.98;;;;;;;;;;10395321;28;20037;-68
2021/10/21 01:28:18;;;;;;;1.88;1.10;;;;;;;;;;10392230;28;20048;-68
2021/10/21 01:33:41;;;;;;;2.97;1.70;;;;;;;;;;10383339;28;20142;-68
2021/10/21 01:39:02;;;;;;;3.47;1.50;;;;;;;;;;10385718;28;20060;-68
2021/10/21 01:44:21;;;;;;;2.90;1.52;;;;;;;;;;10388109;28;20136;-69
2021/10/21 01:49:24;;;;;;;4.07;2.00;;;;;;;;;;10388271;28;20061;-68
2021/10/21 01:54:29;;;;;;;3.28;1.52;;;;;;;;;;10386994;28;20577;-68
2021/10/21 01:59:32;;;;;;;3.10;1.65;;;;;;;;;;10400204;28;20080;-69
2021/10/21 02:04:34;;;;;;;1.83;1.00;;;;;;;;;;10395354;28;20410;-68
2021/10/21 02:09:39;;;;;;;3.15;1.98;;;;;;;;;;10398987;28;20072;-69
2021/10/21 02:14:41;;;;;;;2.25;1.25;;;;;;;;;;10389351;28;20041;-69
2021/10/21 02:19:44;;;;;;;1.90;1.40;;;;;;;;;;10394672;28;20041;-70
2021/10/21 02:24:48;;;;;;;3.93;2.37;;;;;;;;;;10401262;28;20412;-69
2021/10/21 02:29:51;;;;;;;4.22;1.95;;;;;;;;;;10396983;28;20140;-68
2021/10/21 02:34:54;;;;;;;4.20;1.80;;;;;;;;;;10389785;28;20030;-69
2021/10/21 02:39:58;;;;;;;2.50;1.53;;;;;;;;;;10396929;28;20486;-70
2021/10/21 02:45:01;;;;;;;3.35;2.00;;;;;;;;;;10398477;28;20049;-69
2021/10/21 02:50:05;;;;;;;3.80;2.22;;;;;;;;;;10387595;28;20121;-67
2021/10/21 02:55:09;;;;;;;5.82;2.25;;;;;;;;;;10389242;28;20354;-68
2021/10/21 03:00:12;;;;;;;4.32;2.05;;;;;;;;;;10394627;28;20050;-68
2021/10/21 03:05:15;;;;;;;4.63;2.03;;;;;;;;;;10394321;28;20033;-68
2021/10/21 03:10:19;;;;;;;3.58;1.98;;;;;;;;;;10387883;28;20076;-69
2021/10/21 03:15:23;;;;;;;4.70;2.22;;;;;;;;;;10382404;28;20064;-69
2021/10/21 03:20:26;;;;;;;4.68;2.10;;;;;;;;;;10393867;28;20045;-69
2021/10/21 03:25:30;;;;;;;3.57;2.07;;;;;;;;;;10391489;28;20535;-70
2021/10/21 03:30:33;;;;;;;3.92;1.75;;;;;;;;;;10389824;28;20041;-67
2021/10/21 03:35:36;;;;;;;3.38;1.73;;;;;;;;;;10393109;28;20163;-68
2021/10/21 03:40:40;;;;;;;4.63;2.38;;;;;;;;;;10388054;28;20074;-70
2021/10/21 03:45:43;;;;;;;4.65;2.20;;;;;;;;;;10394665;28;20038;-69
2021/10/21 03:50:46;;;;;;;5.27;2.40;;;;;;;;;;10392047;28;20080;-69
2021/10/21 03:55:50;;;;;;;5.95;2.20;;;;;;;;;;10392103;28;20077;-69
2021/10/21 04:00:53;;;;;;;3.08;1.98;;;;;;;;;;10395556;28;20107;-68
2021/10/21 04:05:56;;;;;;;3.38;2.15;;;;;;;;;;10385781;28;20038;-69
2021/10/21 04:11:00;;;;;;;5.38;2.05;;;;;;;;;;10391736;28;20069;-68
2021/10/21 04:16:03;;;;;;;2.67;1.90;;;;;;;;;;10390120;28;20490;-69
2021/10/21 04:21:06;;;;;;;3.83;2.20;;;;;;;;;;10382453;28;20453;-70
2021/10/21 04:26:10;;;;;;;5.15;2.10;;;;;;;;;;10390208;28;20072;-68
2021/10/21 04:31:13;;;;;;;2.83;1.90;;;;;;;;;;10389227;28;20064;-68
2021/10/21 04:36:16;;;;;;;3.00;1.80;;;;;;;;;;10393138;28;20481;-69
2021/10/21 04:41:20;;;;;;;4.30;2.40;;;;;;;;;;10391197;28;20683;-69
2021/10/21 04:46:23;;;;;;;4.93;1.88;;;;;;;;;;10386245;28;20053;-69
2021/10/21 04:51:26;;;;;;;4.43;2.33;;;;;;;;;;10386495;28;20470;-70
2021/10/21 04:56:30;;;;;;;3.20;2.05;;;;;;;;;;10385188;28;20037;-68
2021/10/21 05:01:33;;;;;;;6.68;2.20;;;;;;;;;;10386470;28;20050;-69
2021/10/21 05:06:36;;;;;;;4.17;2.03;;;;;;;;;;10390466;28;20426;-68
2021/10/21 05:11:40;;;;;;;2.42;1.45;;;;;;;;;;10388369;28;20391;-68
2021/10/21 05:16:43;;;;;;;5.05;2.20;;;;;;;;;;10384780;28;20046;-66
2021/10/21 05:21:46;;;;;;;4.15;2.00;;;;;;;;;;10388704;28;20077;-69
2021/10/21 05:26:51;;;;;;;3.45;1.88;;;;;;;;;;10387153;28;20029;-69
2021/10/21 05:31:54;;;;;;;3.15;1.52;;;;;;;;;;10400974;28;20057;-69
2021/10/21 05:36:57;;;;;;;6.53;3.13;;;;;;;;;;10405677;28;20066;-69
2021/10/21 05:42:01;;;;;;;4.90;2.85;;;;;;;;;;10404413;28;20066;-71
2021/10/21 05:47:04;;;;;;;5.43;2.97;;;;;;;;;;10400731;28;20493;-69
2021/10/21 05:52:07;;;;;;;4.47;1.60;;;;;;;;;;10400974;28;20440;-70
2021/10/21 05:57:11;;;;;;;1.93;1.30;;;;;;;;;;10404726;28;20480;-69
2021/10/21 06:02:14;;;;;;;6.85;1.00;;;;;;;;;;10402139;28;20043;-68
2021/10/21 06:07:18;;;;;;;;;;;;;;;;;;10397220;28;20065;-68
2021/10/21 06:12:23;;;;;;;4.97;1.30;;;;;;;;;;10401821;28;19971;-70
2021/10/21 06:17:28;;;;;;;2.13;1.30;;;;;;;;;;10399692;28;20037;-72
2021/10/21 06:22:30;;;;;;;1.95;0.85;;;;;;;;;;10401370;28;20045;-71
2021/10/21 06:27:34;;;;;;;0.77;0.68;;;;;;;;;;10401127;28;20163;-70
2021/10/21 06:32:38;;;;;;;3.10;1.00;;;;;;;;;;10405976;28;20125;-69
2021/10/21 06:37:41;;;;;;;0.77;0.35;;;;;;;;;;10405004;28;20052;-71
2021/10/21 06:42:45;;;;;;;1.20;0.60;;;;;;;;;;10399970;28;20468;-71
2021/10/21 06:47:48;;;;;;;0.98;0.50;;;;;;;;;;10401534;28;20065;-72
2021/10/21 06:52:51;;;;;;;2.05;0.57;;;;;;;;;;10389561;28;20073;-71
2021/10/21 06:57:57;;;;;;;1.42;0.60;;;;;;;;;;10398650;28;20648;-69
2021/10/21 07:02:59;;;;;;;1.45;0.57;;;;;;;;;;10392667;28;20073;-70
2021/10/21 07:08:02;;;;;;;2.90;0.70;;;;;;;;;;10387206;28;20544;-70
2021/10/21 07:13:07;;;;;;;2.50;0.90;;;;;;;;;;10396735;28;20037;-71
2021/10/21 07:18:27;;;;;;;4.07;0.80;;;;;;;;;;10402492;28;20545;-70
2021/10/21 07:23:30;;;;;;;3.13;0.50;;;;;;;;;;10404659;28;20049;-70
2021/10/21 07:28:35;;;;;;;1.70;0.45;;;;;;;;;;10407173;28;20099;-70
2021/10/21 07:33:38;;;;;;;1.33;0.40;;;;;;;;;;10399356;28;20052;-68
2021/10/21 07:38:41;;;;;;;1.42;0.50;;;;;;;;;;10399240;28;20079;-71
2021/10/21 07:43:45;;;;;;;1.30;0.47;;;;;;;;;;10397846;28;20037;-71
2021/10/21 07:48:49;;;;;;;3.28;0.85;;;;;;;;;;10398716;28;20113;-72
2021/10/21 07:53:52;;;;;;;2.05;0.70;;;;;;;;;;10395608;28;20160;-70
2021/10/21 07:58:56;;;;;;;1.80;0.50;;;;;;;;;;10398056;28;20045;-71
2021/10/21 08:03:59;;;;;;;5.28;0.63;;;;;;;;;;10406642;28;20048;-71
2021/10/21 08:09:03;;;;;;;5.57;0.90;;;;;;;;;;10402054;28;20057;-70
2021/10/21 08:14:08;;;;;;;2.90;0.45;;;;;;;;;;10414630;28;20060;-70
2021/10/21 08:19:11;;;;;;;;;;;;;;;;;;10395324;28;20045;-72
2021/10/21 08:24:13;;;;;;;;;;;;;;;;;;10393292;28;19947;-71
2021/10/21 08:29:16;;;;;;;;;;;;;;;;;;10390274;28;20407;-71
2021/10/21 08:34:18;;;;;;;;;;;;;;;;;;10389592;28;19921;-74
2021/10/21 08:39:21;;;;;;;;;;;;;;;;;;10399563;28;19945;-72
2021/10/21 08:44:24;;;;;;;;;;;;;;;;;;10392736;28;20404;-74
2021/10/21 08:49:26;;;;;;;;;;;;;;;;;;10394981;28;20589;-74
2021/10/21 08:54:29;;;;;;;;;;;;;;;;;;10384150;28;19999;-73
2021/10/21 08:59:32;;;;;;;;;;;;;;;;;;10392012;28;19921;-73
2021/10/21 09:04:41;;;;;;;;;;;;;;;;;;10385480;28;19928;-73
2021/10/21 09:09:44;;;;;;;;;;;;;;;;;;10388585;28;19926;-72
2021/10/21 09:14:47;;;;;;;;;;;;;;;;;;10391942;28;19928;-71
2021/10/21 09:19:49;;;;;;;;;;;;;;;;;;10394681;28;20012;-72
2021/10/21 09:24:53;;;;;;;;;;;;;;;;;;10392096;28;20051;-71
2021/10/21 09:29:56;;;;;;;;;;;;;;;;;;10392425;28;19971;-72
2021/10/21 09:34:58;;;;;;;;;;;;;;;;;;10393973;28;19963;-72
2021/10/21 09:40:01;;;;;;;;;;;;;;;;;;10389836;28;19965;-71
2021/10/21 09:45:04;;;;;;;;;;;;;;;;;;10382811;28;19925;-71
2021/10/21 09:50:06;;;;;;;;;;;;;;;;;;10383398;28;19936;-71
2021/10/21 09:55:09;;;;;;;;;;;;;;;;;;10384872;28;20043;-70
2021/10/21 10:00:15;;;;;;;;;;;;;;;;;;10383671;28;19925;-70
2021/10/21 10:05:18;;;;;;;;;;;;;;;;;;10389847;28;20070;-71
2021/10/21 10:10:20;;;;;;;;;;;;;;;;;;10391308;28;19987;-72
2021/10/21 10:15:23;;;;;;;;;;;;;;;;;;10394425;28;19921;-69
2021/10/21 10:20:25;;;;;;;;;;;;;;;;;;10399230;28;19967;-71
2021/10/21 10:25:48;;;;;;;;;;;;;;;;;;10396179;28;19921;-72
2021/10/21 10:30:51;;;;;;;;;;;;;;;;;;10391091;28;20292;-72
2021/10/21 10:35:53;;;;;;;;;;;;;;;;;;10397236;28;19948;-72
2021/10/21 10:40:56;;;;;;;;;;;;;;;;;;10393546;28;19961;-71
2021/10/21 10:45:58;;;;;;;;;;;;;;;;;;10396141;28;19972;-71
2021/10/21 10:51:03;;;;;;;7.53;1.30;;;;;;;;;;10389493;28;19975;-73
2021/10/21 10:56:37;;;;;;;2.92;1.33;;;;;;;;;;10391309;28;20096;-73
2021/10/21 11:01:40;;;;;;;3.40;1.00;;;;;;;;;;10394895;28;20131;-74
2021/10/21 11:07:04;;;;;;;2.92;1.00;;;;;;;;;;10394742;28;20065;-74
2021/10/21 11:12:11;;;;;;;3.50;1.10;;;;;;;;;;10399164;28;20069;-73
2021/10/21 11:17:34;;;;;;;0.95;0.70;;;;;;;;;;10396906;28;20041;-74
2021/10/21 11:22:42;;;;;;;4.10;1.10;;;;;;;;;;10394602;28;20042;-72
2021/10/21 11:27:47;;;;;;;0.95;0.90;;;;;;;;;;10391451;28;20038;-75
2021/10/21 11:32:51;;;;;;;2.47;1.30;;;;;;;;;;10395388;28;20070;-73
2021/10/21 11:37:55;;;;;;;1.30;1.00;;;;;;;;;;10391112;28;20041;-75
2021/10/21 11:42:59;;;;;;;2.92;1.20;;;;;;;;;;10395369;28;20540;-74
2021/10/21 11:48:04;;;;;;;1.73;1.00;;;;;;;;;;10392676;28;20041;-73
2021/10/21 11:53:11;;;;;;;1.15;0.98;;;;;;;;;;10394169;28;20045;-74
2021/10/21 11:58:15;;;;;;;1.65;1.08;;;;;;;;;;10389115;28;20436;-74
2021/10/21 12:03:18;;;;;;;2.50;0.95;;;;;;;;;;10384599;28;20103;-75
2021/10/21 12:08:23;;;;;;;2.97;1.05;;;;;;;;;;10391384;28;20597;-75
2021/10/21 12:13:27;;;;;;;1.52;0.95;;;;;;;;;;10393606;28;20654;-74
2021/10/21 12:18:31;;;;;;;6.75;1.55;;;;;;;;;;10390069;28;20048;-73
2021/10/21 12:23:36;;;;;;;1.30;0.95;;;;;;;;;;10391075;28;20041;-73
2021/10/21 12:28:45;;;;;;;0.85;0.85;;;;;;;;;;10396314;28;20083;-71
2021/10/21 12:33:56;;;;;;;1.58;0.80;;;;;;;;;;10391285;28;20137;-74
2021/10/21 12:39:04;;;;;;;1.60;0.80;;;;;;;;;;10394962;28;20038;-74
2021/10/21 12:44:06;;;;;;;1.30;0.77;;;;;;;;;;10394712;28;20045;-74
2021/10/21 12:49:10;;;;;;;0.60;0.60;;;;;;;;;;10387763;28;20041;-73
2021/10/21 12:54:24;;;;;;;1.27;0.60;;;;;;;;;;10393986;28;20041;-73
2021/10/21 12:59:29;;;;;;;2.80;0.70;;;;;;;;;;10388645;28;20535;-73
2021/10/21 13:04:42;;;;;;;2.33;0.70;;;;;;;;;;10381598;28;20049;-74
2021/10/21 13:09:46;;;;;;;0.90;0.75;;;;;;;;;;10387295;28;20121;-74
2021/10/21 13:14:50;;;;;;;0.68;0.60;;;;;;;;;;10389206;28;20041;-74
2021/10/21 13:19:53;;;;;;;1.13;0.73;;;;;;;;;;10397723;28;20037;-74
2021/10/21 13:24:56;;;;;;;;;;;;;;;;;;10389998;28;20410;-75
2021/10/21 13:30:00;;;;;;;0.63;0.60;;;;;;;;;;10386473;28;20037;-75
2021/10/21 13:35:03;;;;;;;0.63;0.60;;;;;;;;;;10390816;28;20041;-75
2021/10/21 13:40:07;;;;;;;0.50;0.47;;;;;;;;;;10390885;28;20041;-74
2021/10/21 13:45:11;;;;;;;1.40;0.68;;;;;;;;;;10388022;28;20502;-73
2021/10/21 13:50:14;;;;;;;0.65;0.60;;;;;;;;;;10391539;28;20048;-74
2021/10/21 13:55:16;;;;;;;1.20;0.50;;;;;;;;;;10392128;28;20160;-74
2021/10/21 14:00:21;;;;;;;0.30;0.30;;;;;;;;;;10402613;28;20485;-72
2021/10/21 14:05:24;;;;;;;1.10;0.50;;;;;;;;;;10393535;28;20041;-74
2021/10/21 14:10:27;;;;;;;0.50;0.40;;;;;;;;;;10405534;28;20042;-73
2021/10/21 14:15:31;;;;;;;0.40;0.40;;;;;;;;;;10402228;28;20072;-74
2021/10/21 14:20:34;;;;;;;0.40;0.40;;;;;;;;;;10410458;28;20109;-72
2021/10/21 14:25:37;;;;;;;1.80;0.40;;;;;;;;;;10410449;28;20052;-72
2021/10/21 14:30:41;;;;;;;0.75;0.55;;;;;;;;;;10400108;28;20410;-72
2021/10/21 14:36:02;;;;;;;5.10;0.68;;;;;;;;;;10399590;28;20103;-74
2021/10/21 14:41:05;;;;;;;1.65;0.47;;;;;;;;;;10417074;28;20044;-74
2021/10/21 14:46:08;;;;;;;;;;;;;;;;;;10398539;28;20409;-72
2021/10/21 14:51:14;;;;;;;2.80;0.57;;;;;;;;;;10396129;28;19921;-74
2021/10/21 14:56:17;;;;;;;0.43;0.25;;;;;;;;;;10408825;28;20141;-73
2021/10/21 15:01:20;;;;;;;1.27;0.40;;;;;;;;;;10418265;28;20128;-74
2021/10/21 15:06:34;;;;;;;3.97;0.40;;;;;;;;;;10416708;28;20097;-73
2021/10/21 15:22:40;;;;;;;2.38;0.70;;;;;;;;;;10386976;28;20108;-73
2021/10/21 15:27:45;;;;;;;0.55;0.28;;;;;;;;;;10393091;28;20118;-73
2021/10/21 15:32:48;;;;;;;2.47;0.47;;;;;;;;;;10397518;28;20096;-73
2021/10/21 15:37:54;;;;;;;0.97;0.30;;;;;;;;;;10394073;28;20458;-73
2021/10/21 15:42:58;;;;;;;5.82;0.75;;;;;;;;;;10396032;28;20390;-73
2021/10/21 15:48:05;;;;;;;1.88;0.70;;;;;;;;;;10397636;28;20125;-74
2021/10/21 16:09:46;;;;;;;1.15;0.50;;;;;;;;;;10385677;28;20041;-74
2021/10/21 16:14:52;;;;;;;1.10;0.50;;;;;;;;;;10394180;28;20049;-73
2021/10/21 16:20:00;;;;;;;0.20;0.20;;;;;;;;;;10393461;28;20038;-74
2021/10/21 16:25:19;;;;;;;0.52;0.25;;;;;;;;;;10389586;28;20045;-72
2021/10/21 16:30:22;;;;;;;1.25;0.43;;;;;;;;;;10390167;28;20113;-73
2021/10/21 16:35:25;;;;;;;1.30;0.67;;;;;;;;;;10389326;28;20494;-73
2021/10/21 16:40:30;;;;;;;3.30;0.70;;;;;;;;;;10400444;28;20291;-74
2021/10/21 16:45:32;;;;;;;2.22;1.02;;;;;;;;;;10393687;28;20176;-74
2021/10/21 16:50:35;;;;;;;2.40;0.83;;;;;;;;;;10384362;28;20489;-73
2021/10/21 16:55:40;;;;;;;1.20;0.67;;;;;;;;;;10391121;28;20037;-74
2021/10/21 17:00:43;;;;;;;2.45;0.40;;;;;;;;;;10393264;28;20103;-72
2021/10/21 17:05:46;;;;;;;3.83;0.60;;;;;;;;;;10388168;28;20095;-72
2021/10/21 17:10:50;;;;;;;2.67;0.90;;;;;;;;;;10392369;28;20421;-74
2021/10/21 17:15:53;;;;;;;1.58;0.73;;;;;;;;;;10391564;28;20387;-74
2021/10/21 17:20:56;;;;;;;1.40;0.82;;;;;;;;;;10400550;28;20041;-73
2021/10/21 17:26:00;;;;;;;5.45;0.95;;;;;;;;;;10393826;28;20119;-74
2021/10/21 17:31:16;;;;;;;0.82;0.43;;;;;;;;;;10391094;28;20049;-74
2021/10/21 17:36:19;;;;;;;3.43;0.60;;;;;;;;;;10392808;28;20041;-75
2021/10/21 17:41:25;;;;;;;1.02;0.43;;;;;;;;;;10389401;28;20120;-75
2021/10/21 17:46:27;;;;;;;2.00;0.52;;;;;;;;;;10391351;28;20740;-75
2021/10/21 17:51:30;;;;;;;0.85;0.40;;;;;;;;;;10391262;28;20033;-74
2021/10/21 17:56:34;;;;;;;0.85;0.25;;;;;;;;;;10392145;28;20052;-75
2021/10/21 18:01:37;;;;;;;2.08;0.50;;;;;;;;;;10387845;28;20080;-74
2021/10/21 18:06:41;;;;;;;1.57;0.60;;;;;;;;;;10388956;28;20116;-74
2021/10/21 18:11:48;;;;;;;2.67;0.60;;;;;;;;;;10390526;28;20458;-73
2021/10/21 18:16:50;;;;;;;2.67;1.08;;;;;;;;;;10391924;28;20038;-74
2021/10/21 18:21:54;;;;;;;3.10;0.90;;;;;;;;;;10390191;28;20129;-74
2021/10/21 18:26:58;;;;;;;1.38;0.57;;;;;;;;;;10377246;28;20076;-74
2021/10/21 18:32:01;;;;;;;3.50;0.90;;;;;;;;;;10392170;28;20410;-72
2021/10/21 18:37:06;;;;;;;1.95;0.93;;;;;;;;;;10384015;28;20111;-74
2021/10/21 18:42:10;;;;;;;1.98;0.63;;;;;;;;;;10386546;28;20061;-71
2021/10/21 18:47:13;;;;;;;2.65;0.80;;;;;;;;;;10394314;28;20505;-72
2021/10/21 18:52:16;;;;;;;2.10;0.75;;;;;;;;;;10394746;28;20047;-72
2021/10/21 18:57:26;;;;;;;1.70;0.63;;;;;;;;;;10398635;28;20125;-72
2021/10/21 19:02:29;;;;;;;3.65;1.13;;;;;;;;;;10395722;28;20046;-73
2021/10/21 19:07:32;;;;;;;5.23;0.73;;;;;;;;;;10398270;28;20042;-74
2021/10/21 19:12:37;;;;;;;1.43;0.50;;;;;;;;;;10388528;28;20037;-73
2021/10/21 19:17:40;;;;;;;1.13;0.60;;;;;;;;;;10390038;28;20304;-72
2021/10/21 19:22:43;;;;;;;1.65;0.80;;;;;;;;;;10393744;28;20033;-75
2021/10/21 19:27:48;;;;;;;3.22;0.80;;;;;;;;;;10394288;28;20053;-73
2021/10/21 19:32:53;;;;;;;1.05;0.43;;;;;;;;;;10397764;28;20111;-70
2021/10/21 19:38:13;;;;;;;2.25;0.80;;;;;;;;;;10394389;28;20038;-73
2021/10/21 19:43:18;;;;;;;2.05;0.70;;;;;;;;;;10389052;28;20037;-72
2021/10/21 19:48:20;;;;;;;1.05;0.60;;;;;;;;;;10391746;28;20074;-73
2021/10/21 19:53:24;;;;;;;3.22;0.47;;;;;;;;;;10393383;28;20118;-73
2021/10/21 19:58:28;;;;;;;1.98;0.68;;;;;;;;;;10388262;28;20514;-75
2021/10/21 20:03:34;;;;;;;0.77;0.65;;;;;;;;;;10388256;28;20049;-74
2021/10/21 20:08:38;;;;;;;2.35;0.60;;;;;;;;;;10391074;28;20320;-73
2021/10/21 20:13:42;;;;;;;2.72;0.88;;;;;;;;;;10384840;28;20156;-73
2021/10/21 20:18:45;;;;;;;2.10;0.80;;;;;;;;;;10391851;28;20057;-72
2021/10/21 20:23:48;;;;;;;1.85;0.70;;;;;;;;;;10394399;28;20120;-72
2021/10/21 20:28:53;;;;;;;3.50;1.13;;;;;;;;;;10389940;28;20053;-73
2021/10/21 20:33:58;;;;;;;1.80;0.80;;;;;;;;;;10384775;28;20052;-73
2021/10/21 20:39:01;;;;;;;1.92;0.85;;;;;;;;;;10392051;28;20045;-73
2021/10/21 20:44:06;;;;;;;1.70;0.50;;;;;;;;;;10389176;28;20037;-74
2021/10/21 20:49:09;;;;;;;2.83;0.43;;;;;;;;;;10384859;28;20076;-73
2021/10/21 20:54:11;;;;;;;1.23;0.43;;;;;;;;;;10391345;28;20143;-74
2021/10/21 20:59:16;;;;;;;5.32;0.75;;;;;;;;;;10395802;28;20046;-73
2021/10/21 21:04:19;;;;;;;1.65;0.40;;;;;;;;;;10397370;28;20470;-72
2021/10/21 21:09:22;;;;;;;2.33;0.57;;;;;;;;;;10392992;28;20056;-74
2021/10/21 21:14:26;;;;;;;1.40;0.47;;;;;;;;;;10391174;28;20156;-74
2021/10/21 21:19:29;;;;;;;3.67;0.20;;;;;;;;;;10394237;28;20436;-73
2021/10/21 21:24:32;;;;;;;2.13;0.32;;;;;;;;;;10393177;28;20656;-73
2021/10/21 21:29:37;;;;;;;1.30;0.33;;;;;;;;;;10395768;28;20497;-75
2021/10/21 21:34:40;;;;;;;0.57;0.20;;;;;;;;;;10395570;28;20121;-73
2021/10/21 21:39:44;;;;;;;0.35;0.20;;;;;;;;;;10385426;28;20043;-75
2021/10/21 21:44:51;;;;;;;2.70;0.63;;;;;;;;;;10383320;28;20049;-73
2021/10/21 21:49:54;;;;;;;0.20;0.20;;;;;;;;;;10394673;28;20038;-74
2021/10/21 21:54:57;;;;;;;2.53;0.90;;;;;;;;;;10389294;28;20069;-72
2021/10/21 22:00:01;;;;;;;1.85;0.40;;;;;;;;;;10387140;28;20531;-74
2021/10/21 22:05:04;;;;;;;1.65;0.43;;;;;;;;;;10392351;28;20129;-73
2021/10/21 22:10:07;;;;;;;3.22;1.48;;;;;;;;;;10399716;28;20518;-72
2021/10/21 22:15:12;;;;;;;1.60;0.80;;;;;;;;;;10402660;28;20042;-72
2021/10/21 22:20:16;;;;;;;2.13;0.80;;;;;;;;;;10403849;28;20490;-73
2021/10/21 22:25:19;;;;;;;1.70;0.50;;;;;;;;;;10398101;28;20124;-72
2021/10/21 22:30:23;;;;;;;2.28;0.63;;;;;;;;;;10413880;28;20464;-73
2021/10/21 22:35:26;;;;;;;0.40;0.28;;;;;;;;;;10402457;28;20049;-72
2021/10/21 22:40:29;;;;;;;2.33;0.57;;;;;;;;;;10421364;28;20088;-73
2021/10/21 22:45:34;;;;;;;2.25;0.68;;;;;;;;;;10411388;28;20555;-72
2021/10/21 22:50:36;;;;;;;4.63;0.63;;;;;;;;;;10417456;28;20527;-73
2021/10/21 22:55:39;;;;;;;0.40;0.30;;;;;;;;;;10427051;28;20041;-72
2021/10/21 23:00:44;;;;;;;0.32;0.32;;;;;;;;;;10431461;28;20096;-73
2021/10/21 23:05:47;;;;;;;1.88;0.70;;;;;;;;;;10422292;28;20053;-73
2021/10/21 23:10:50;;;;;;;0.35;0.20;;;;;;;;;;10403982;28;20042;-73
2021/10/21 23:15:54;;;;;;;1.65;0.20;;;;;;;;;;10396008;28;20474;-73
2021/10/21 23:20:57;;;;;;;1.83;0.52;;;;;;;;;;10387143;28;20037;-74
2021/10/21 23:26:00;;;;;;;0.67;0.33;;;;;;;;;;10394437;28;20044;-74
2021/10/21 23:31:05;;;;;;;0.37;0.30;;;;;;;;;;10391192;28;20048;-73
2021/10/21 23:36:07;;;;;;;0.25;0.20;;;;;;;;;;10395730;28;20092;-71
2021/10/21 23:41:10;;;;;;;0.88;0.43;;;;;;;;;;10389886;28;20168;-73
2021/10/21 23:46:14;;;;;;;2.23;0.40;;;;;;;;;;10392105;28;20413;-71
2021/10/21 23:51:17;;;;;;;1.23;0.50;;;;;;;;;;10390512;28;20502;-73
2021/10/21 23:56:20;;;;;;;2.80;0.50;;;;;;;;;;10390343;28;20068;-73
